createdAt,value
2018-01-21T00:00:38.338Z,0
2018-01-21T00:01:48.548Z,0
2018-01-21T00:02:58.678Z,0
2018-01-21T00:04:08.817Z,0
2018-01-21T00:05:19.018Z,0
2018-01-21T00:06:29.208Z,0
2018-01-21T00:07:39.344Z,0
2018-01-21T00:08:49.478Z,0
2018-01-21T00:09:59.619Z,0
2018-01-21T00:11:09.438Z,0
2018-01-21T00:12:19.568Z,0
2018-01-21T00:13:29.697Z,0
2018-01-21T00:14:39.920Z,0
2018-01-21T00:15:50.242Z,0
2018-01-21T00:17:00.392Z,0
2018-01-21T00:18:10.649Z,0
2018-01-21T00:19:20.787Z,0
2018-01-21T00:20:30.923Z,0
2018-01-21T00:21:41.112Z,0
2018-01-21T00:22:51.287Z,0
2018-01-21T00:24:01.402Z,0
2018-01-21T00:25:11.542Z,0
2018-01-21T00:26:21.673Z,0
2018-01-21T00:27:31.831Z,0
2018-01-21T00:28:42.016Z,0
2018-01-21T00:29:52.335Z,0
2018-01-21T00:31:02.512Z,0
2018-01-21T00:32:12.764Z,0
2018-01-21T00:33:22.960Z,0
2018-01-21T00:34:33.177Z,0
2018-01-21T00:35:43.327Z,0
2018-01-21T00:36:53.465Z,0
2018-01-21T00:38:03.582Z,0
2018-01-21T00:39:13.708Z,0
2018-01-21T00:40:23.887Z,0
2018-01-21T00:41:34.186Z,0
2018-01-21T00:42:44.337Z,0
2018-01-21T00:43:54.495Z,0
2018-01-21T00:45:04.675Z,0
2018-01-21T00:46:14.614Z,0
2018-01-21T00:47:24.727Z,0
2018-01-21T00:48:34.686Z,0
2018-01-21T00:49:44.829Z,0
2018-01-21T00:50:54.970Z,0
2018-01-21T00:52:05.082Z,0
2018-01-21T00:53:15.309Z,0
2018-01-21T00:54:25.537Z,0
2018-01-21T00:55:35.727Z,0
2018-01-21T00:56:45.912Z,0
2018-01-21T00:57:56.091Z,0
2018-01-21T00:59:05.997Z,0
2018-01-21T01:00:16.212Z,0
2018-01-21T01:01:26.077Z,0
2018-01-21T01:02:36.183Z,0
2018-01-21T01:03:46.304Z,0
2018-01-21T01:04:56.559Z,0
2018-01-21T01:06:06.678Z,0
2018-01-21T01:07:16.970Z,0
2018-01-21T01:08:27.127Z,0
2018-01-21T01:09:37.339Z,0
2018-01-21T01:10:47.510Z,0
2018-01-21T01:11:57.611Z,0
2018-01-21T01:13:07.710Z,0
2018-01-21T01:14:17.884Z,0
2018-01-21T01:15:27.996Z,0
2018-01-21T01:16:38.167Z,0
2018-01-21T01:17:48.328Z,0
2018-01-21T01:18:58.494Z,0
2018-01-21T01:20:08.626Z,0
2018-01-21T01:21:18.772Z,0
2018-01-21T01:22:28.953Z,0
2018-01-21T01:23:39.086Z,0
2018-01-21T01:24:48.686Z,0
2018-01-21T01:25:58.827Z,0
2018-01-21T01:27:08.946Z,0
2018-01-21T01:28:19.050Z,0
2018-01-21T01:29:29.249Z,0
2018-01-21T01:30:39.446Z,0
2018-01-21T01:31:49.605Z,0
2018-01-21T01:32:59.925Z,0
2018-01-21T01:34:09.899Z,0
2018-01-21T01:35:20.065Z,0
2018-01-21T01:36:30.162Z,0
2018-01-21T01:37:40.310Z,0
2018-01-21T01:38:50.479Z,0
2018-01-21T01:40:00.702Z,0
2018-01-21T01:41:10.831Z,0
2018-01-21T01:42:21.055Z,0
2018-01-21T01:43:31.202Z,0
2018-01-21T01:44:41.373Z,0
2018-01-21T01:45:51.495Z,0
2018-01-21T01:47:01.610Z,0
2018-01-21T01:48:11.781Z,0
2018-01-21T01:49:21.741Z,0
2018-01-21T01:50:31.911Z,0
2018-01-21T01:51:41.887Z,0
2018-01-21T01:52:52.021Z,0
2018-01-21T01:54:02.158Z,0
2018-01-21T01:55:12.283Z,0
2018-01-21T01:56:22.414Z,0
2018-01-21T01:57:32.678Z,0
2018-01-21T01:58:42.580Z,0
2018-01-21T01:59:52.771Z,0
2018-01-21T02:01:02.900Z,0
2018-01-21T02:02:13.084Z,0
2018-01-21T02:03:23.207Z,0
2018-01-21T02:04:33.412Z,0
2018-01-21T02:05:43.580Z,0
2018-01-21T02:06:53.769Z,0
2018-01-21T02:08:03.909Z,0
2018-01-21T02:09:14.045Z,0
2018-01-21T02:10:24.167Z,0
2018-01-21T02:11:34.320Z,0
2018-01-21T02:12:44.543Z,0
2018-01-21T02:13:54.693Z,0
2018-01-21T02:15:05.093Z,0
2018-01-21T02:16:15.216Z,0
2018-01-21T02:17:25.407Z,0
2018-01-21T02:18:35.687Z,0
2018-01-21T02:19:45.485Z,0
2018-01-21T02:20:55.435Z,0
2018-01-21T02:22:05.580Z,0
2018-01-21T02:23:15.722Z,0
2018-01-21T02:24:25.833Z,0
2018-01-21T02:25:35.994Z,0
2018-01-21T02:26:46.233Z,0
2018-01-21T02:27:56.443Z,0
2018-01-21T02:29:06.768Z,0
2018-01-21T02:30:16.886Z,0
2018-01-21T02:31:27.009Z,0
2018-01-21T02:32:37.165Z,0
2018-01-21T02:33:47.292Z,0
2018-01-21T02:34:57.418Z,0
2018-01-21T02:36:07.535Z,0
2018-01-21T02:37:17.714Z,0
2018-01-21T02:38:27.859Z,0
2018-01-21T02:39:37.958Z,0
2018-01-21T02:40:48.080Z,0
2018-01-21T02:41:58.220Z,0
2018-01-21T02:43:08.379Z,0
2018-01-21T02:44:18.597Z,0
2018-01-21T02:45:28.793Z,0
2018-01-21T02:46:39.084Z,0
2018-01-21T02:47:49.241Z,0
2018-01-21T02:48:59.437Z,0
2018-01-21T02:50:10.551Z,0
2018-01-21T02:51:21.661Z,0
2018-01-21T02:52:31.586Z,0
2018-01-21T02:53:41.757Z,0
2018-01-21T02:54:51.958Z,0
2018-01-21T02:56:02.133Z,0
2018-01-21T02:57:12.267Z,0
2018-01-21T02:58:22.422Z,0
2018-01-21T02:59:32.544Z,0
2018-01-21T03:00:42.684Z,0
2018-01-21T03:01:52.840Z,0
2018-01-21T03:03:03.012Z,0
2018-01-21T03:04:13.144Z,0
2018-01-21T03:05:23.264Z,0
2018-01-21T03:06:33.386Z,0
2018-01-21T03:07:43.524Z,0
2018-01-21T03:08:53.677Z,0
2018-01-21T03:10:03.829Z,0
2018-01-21T03:11:13.678Z,0
2018-01-21T03:12:23.811Z,0
2018-01-21T03:13:33.951Z,0
2018-01-21T03:14:44.096Z,0
2018-01-21T03:15:53.830Z,0
2018-01-21T03:17:03.928Z,0
2018-01-21T03:18:14.043Z,0
2018-01-21T03:19:24.310Z,0
2018-01-21T03:20:34.252Z,0
2018-01-21T03:21:44.381Z,0
2018-01-21T03:22:54.568Z,0
2018-01-21T03:24:04.317Z,0
2018-01-21T03:25:14.532Z,0
2018-01-21T03:26:24.651Z,0
2018-01-21T03:27:34.768Z,0
2018-01-21T03:28:44.952Z,0
2018-01-21T03:29:55.045Z,0
2018-01-21T03:31:05.160Z,0
2018-01-21T03:32:15.006Z,0
2018-01-21T03:33:24.988Z,0
2018-01-21T03:34:35.149Z,0
2018-01-21T03:35:45.290Z,0
2018-01-21T03:36:55.408Z,0
2018-01-21T03:38:05.524Z,0
2018-01-21T03:39:15.666Z,0
2018-01-21T03:40:25.807Z,0
2018-01-21T03:41:36.008Z,0
2018-01-21T03:42:46.152Z,0
2018-01-21T03:43:56.285Z,0
2018-01-21T03:45:06.394Z,0
2018-01-21T03:46:16.524Z,0
2018-01-21T03:47:26.661Z,0
2018-01-21T03:48:36.892Z,0
2018-01-21T03:49:47.075Z,0
2018-01-21T03:50:57.298Z,0
2018-01-21T03:52:07.424Z,0
2018-01-21T03:53:17.542Z,0
2018-01-21T03:54:27.644Z,0
2018-01-21T03:55:37.770Z,0
2018-01-21T03:56:47.930Z,0
2018-01-21T03:57:58.083Z,0
2018-01-21T03:59:08.218Z,0
2018-01-21T04:00:18.311Z,0
2018-01-21T04:01:28.459Z,0
2018-01-21T04:02:38.591Z,0
2018-01-21T04:03:48.776Z,0
2018-01-21T04:04:59.124Z,0
2018-01-21T04:06:08.974Z,0
2018-01-21T04:07:19.128Z,0
2018-01-21T04:08:29.254Z,0
2018-01-21T04:09:39.437Z,0
2018-01-21T04:10:49.588Z,0
2018-01-21T04:11:59.810Z,0
2018-01-21T04:13:09.974Z,0
2018-01-21T04:14:20.106Z,0
2018-01-21T04:15:30.218Z,0
2018-01-21T04:16:40.076Z,0
2018-01-21T04:17:50.175Z,0
2018-01-21T04:19:00.269Z,0
2018-01-21T04:20:10.397Z,0
2018-01-21T04:21:20.538Z,0
2018-01-21T04:22:30.642Z,0
2018-01-21T04:23:40.747Z,0
2018-01-21T04:24:50.855Z,0
2018-01-21T04:26:01.083Z,0
2018-01-21T04:27:10.932Z,0
2018-01-21T04:28:21.082Z,0
2018-01-21T04:29:31.212Z,0
2018-01-21T04:30:41.323Z,0
2018-01-21T04:31:51.601Z,0
2018-01-21T04:33:01.755Z,0
2018-01-21T04:34:11.843Z,0
2018-01-21T04:35:21.960Z,0
2018-01-21T04:36:32.080Z,0
2018-01-21T04:37:42.264Z,0
2018-01-21T04:38:52.574Z,0
2018-01-21T04:40:02.814Z,0
2018-01-21T04:41:12.994Z,0
2018-01-21T04:42:23.201Z,0
2018-01-21T04:43:33.370Z,0
2018-01-21T04:44:43.218Z,0
2018-01-21T04:45:53.329Z,0
2018-01-21T04:47:03.534Z,0
2018-01-21T04:48:13.653Z,0
2018-01-21T04:49:23.742Z,0
2018-01-21T04:50:33.878Z,0
2018-01-21T04:51:44.001Z,0
2018-01-21T04:52:54.219Z,0
2018-01-21T04:54:04.467Z,0
2018-01-21T04:55:14.655Z,0
2018-01-21T04:56:24.841Z,0
2018-01-21T04:57:35.025Z,0
2018-01-21T04:58:45.145Z,0
2018-01-21T04:59:55.304Z,0
2018-01-21T05:01:05.475Z,0
2018-01-21T05:02:15.636Z,0
2018-01-21T05:03:25.569Z,0
2018-01-21T05:04:35.714Z,0
2018-01-21T05:05:45.814Z,0
2018-01-21T05:06:55.993Z,0
2018-01-21T05:08:06.177Z,0
2018-01-21T05:09:16.364Z,0
2018-01-21T05:10:26.250Z,0
2018-01-21T05:11:36.374Z,0
2018-01-21T05:12:46.520Z,0
2018-01-21T05:13:56.662Z,0
2018-01-21T05:15:06.770Z,0
2018-01-21T05:16:16.891Z,0
2018-01-21T05:17:27.020Z,0
2018-01-21T05:18:36.761Z,0
2018-01-21T05:19:46.945Z,0
2018-01-21T05:20:57.159Z,0
2018-01-21T05:22:07.298Z,0
2018-01-21T05:23:17.402Z,0
2018-01-21T05:24:27.594Z,0
2018-01-21T05:25:37.712Z,0
2018-01-21T05:26:47.597Z,0
2018-01-21T05:27:57.733Z,0
2018-01-21T05:29:07.578Z,0
2018-01-21T05:30:17.691Z,0
2018-01-21T05:31:27.795Z,0
2018-01-21T05:32:37.901Z,0
2018-01-21T05:33:48.128Z,0
2018-01-21T05:34:58.240Z,0
2018-01-21T05:36:08.427Z,0
2018-01-21T05:37:18.557Z,0
2018-01-21T05:38:28.656Z,0
2018-01-21T05:39:38.854Z,0
2018-01-21T05:40:48.958Z,0
2018-01-21T05:42:00.061Z,0
2018-01-21T05:43:10.203Z,0
2018-01-21T05:44:20.328Z,0
2018-01-21T05:45:30.207Z,0
2018-01-21T05:46:40.349Z,0
2018-01-21T05:47:50.689Z,0
2018-01-21T05:49:00.888Z,0
2018-01-21T05:50:11.076Z,0
2018-01-21T05:51:21.183Z,0
2018-01-21T05:52:31.307Z,0
2018-01-21T05:53:41.456Z,0
2018-01-21T05:54:51.616Z,0
2018-01-21T05:56:01.787Z,0
2018-01-21T05:57:11.991Z,0
2018-01-21T05:58:22.139Z,0
2018-01-21T05:59:32.260Z,0
2018-01-21T06:00:42.370Z,0
2018-01-21T06:01:52.506Z,0
2018-01-21T06:03:02.749Z,0
2018-01-21T06:04:12.965Z,0
2018-01-21T06:05:23.115Z,0
2018-01-21T06:06:33.317Z,0
2018-01-21T06:07:43.569Z,0
2018-01-21T06:08:53.728Z,0
2018-01-21T06:10:03.912Z,0
2018-01-21T06:11:14.132Z,0
2018-01-21T06:12:24.269Z,0
2018-01-21T06:13:34.366Z,0
2018-01-21T06:14:44.545Z,0
2018-01-21T06:15:55.618Z,0
2018-01-21T06:17:05.788Z,0
2018-01-21T06:18:15.640Z,0
2018-01-21T06:19:25.774Z,0
2018-01-21T06:20:36.030Z,0
2018-01-21T06:21:46.144Z,0
2018-01-21T06:22:56.397Z,0
2018-01-21T06:24:06.588Z,0
2018-01-21T06:25:16.776Z,0
2018-01-21T06:26:26.947Z,0
2018-01-21T06:27:37.056Z,0
2018-01-21T06:28:47.210Z,0
2018-01-21T06:29:57.377Z,0
2018-01-21T06:31:07.552Z,0
2018-01-21T06:32:17.696Z,0
2018-01-21T06:33:27.901Z,0
2018-01-21T06:34:38.146Z,0
2018-01-21T06:35:48.316Z,0
2018-01-21T06:36:58.422Z,4
2018-01-21T06:38:08.560Z,4
2018-01-21T06:39:18.684Z,0
2018-01-21T06:40:28.844Z,4
2018-01-21T06:41:39.140Z,4
2018-01-21T06:42:49.324Z,4
2018-01-21T06:43:59.203Z,8
2018-01-21T06:45:09.313Z,8
2018-01-21T06:46:19.435Z,8
2018-01-21T06:47:29.624Z,12
2018-01-21T06:48:39.793Z,8
2018-01-21T06:49:50.023Z,12
2018-01-21T06:51:00.193Z,16
2018-01-21T06:52:10.117Z,20
2018-01-21T06:53:20.362Z,20
2018-01-21T06:54:30.578Z,24
2018-01-21T06:55:40.493Z,28
2018-01-21T06:56:50.602Z,36
2018-01-21T06:58:00.693Z,36
2018-01-21T06:59:10.560Z,44
2018-01-21T07:00:20.699Z,52
2018-01-21T07:01:30.969Z,60
2018-01-21T07:02:41.189Z,72
2018-01-21T07:03:51.348Z,84
2018-01-21T07:05:01.261Z,96
2018-01-21T07:06:11.463Z,108
2018-01-21T07:07:21.597Z,120
2018-01-21T07:08:31.476Z,132
2018-01-21T07:09:41.599Z,144
2018-01-21T07:10:51.713Z,160
2018-01-21T07:12:01.920Z,180
2018-01-21T07:13:12.135Z,200
2018-01-21T07:14:22.438Z,220
2018-01-21T07:15:32.615Z,240
2018-01-21T07:16:42.804Z,264
2018-01-21T07:17:52.950Z,288
2018-01-21T07:19:03.337Z,304
2018-01-21T07:20:13.478Z,328
2018-01-21T07:21:27.388Z,352
2018-01-21T07:22:37.956Z,380
2018-01-21T07:23:48.666Z,408
2018-01-21T07:24:58.771Z,436
2018-01-21T07:26:08.999Z,476
2018-01-21T07:27:19.172Z,528
2018-01-21T07:28:29.591Z,592
2018-01-21T07:29:39.724Z,644
2018-01-21T07:30:49.842Z,692
2018-01-21T07:31:59.994Z,748
2018-01-21T07:33:10.152Z,780
2018-01-21T07:34:20.401Z,788
2018-01-21T07:35:30.655Z,832
2018-01-21T07:36:40.813Z,880
2018-01-21T07:37:51.198Z,876
2018-01-21T07:39:01.051Z,864
2018-01-21T07:40:11.191Z,868
2018-01-21T07:41:21.314Z,884
2018-01-21T07:42:31.472Z,920
2018-01-21T07:43:41.636Z,944
2018-01-21T07:44:51.804Z,964
2018-01-21T07:46:01.926Z,1000
2018-01-21T07:47:12.054Z,1068
2018-01-21T07:48:22.169Z,1120
2018-01-21T07:49:32.354Z,1120
2018-01-21T07:50:42.263Z,1108
2018-01-21T07:51:52.397Z,1096
2018-01-21T07:53:02.564Z,1100
2018-01-21T07:54:12.870Z,1120
2018-01-21T07:55:23.034Z,1152
2018-01-21T07:56:33.316Z,1200
2018-01-21T07:57:43.551Z,1276
2018-01-21T07:58:53.322Z,1352
2018-01-21T08:00:03.479Z,1444
2018-01-21T08:01:13.678Z,1516
2018-01-21T08:02:23.886Z,1532
2018-01-21T08:03:34.047Z,1540
2018-01-21T08:04:44.222Z,1540
2018-01-21T08:05:54.379Z,1540
2018-01-21T08:07:04.516Z,1540
2018-01-21T08:08:14.632Z,1548
2018-01-21T08:09:24.818Z,1572
2018-01-21T08:10:35.028Z,1616
2018-01-21T08:11:45.244Z,1676
2018-01-21T08:12:55.467Z,1740
2018-01-21T08:14:05.620Z,1776
2018-01-21T08:15:15.807Z,1796
2018-01-21T08:16:25.948Z,1820
2018-01-21T08:17:36.350Z,1868
2018-01-21T08:18:46.507Z,1920
2018-01-21T08:19:56.733Z,1980
2018-01-21T08:21:06.944Z,2040
2018-01-21T08:22:17.134Z,2120
2018-01-21T08:23:27.426Z,2124
2018-01-21T08:24:37.575Z,2084
2018-01-21T08:25:47.798Z,2036
2018-01-21T08:26:58.029Z,2008
2018-01-21T08:28:08.184Z,2008
2018-01-21T08:29:18.439Z,2052
2018-01-21T08:30:28.768Z,2160
2018-01-21T08:31:38.898Z,2280
2018-01-21T08:32:49.241Z,2368
2018-01-21T08:33:59.376Z,2468
2018-01-21T08:35:09.661Z,2552
2018-01-21T08:36:19.859Z,2620
2018-01-21T08:37:30.035Z,2720
2018-01-21T08:38:40.206Z,2768
2018-01-21T08:39:50.489Z,2848
2018-01-21T08:41:00.692Z,2920
2018-01-21T08:42:11.001Z,2940
2018-01-21T08:43:22.170Z,2952
2018-01-21T08:44:32.333Z,3132
2018-01-21T08:45:42.570Z,3376
2018-01-21T08:46:52.468Z,3516
2018-01-21T08:48:02.625Z,3780
2018-01-21T08:49:12.761Z,4032
2018-01-21T08:50:22.890Z,6068
2018-01-21T08:51:33.030Z,5948
2018-01-21T08:52:43.194Z,5732
2018-01-21T08:53:53.317Z,5412
2018-01-21T08:55:03.513Z,5336
2018-01-21T08:56:13.686Z,4776
2018-01-21T08:57:23.852Z,5544
2018-01-21T08:58:34.057Z,4728
2018-01-21T08:59:43.952Z,4460
2018-01-21T09:00:54.106Z,4532
2018-01-21T09:02:04.968Z,4724
2018-01-21T09:03:15.098Z,3588
2018-01-21T09:04:24.978Z,3656
2018-01-21T09:05:35.138Z,4320
2018-01-21T09:06:45.037Z,5408
2018-01-21T09:07:55.228Z,6472
2018-01-21T09:09:05.504Z,6836
2018-01-21T09:10:15.685Z,6292
2018-01-21T09:11:25.847Z,5480
2018-01-21T09:12:36.243Z,5432
2018-01-21T09:13:46.176Z,5920
2018-01-21T09:14:56.317Z,5928
2018-01-21T09:16:06.492Z,5616
2018-01-21T09:17:16.654Z,4856
2018-01-21T09:18:26.828Z,5332
2018-01-21T09:19:36.728Z,6484
2018-01-21T09:20:46.942Z,6488
2018-01-21T09:21:57.096Z,6124
2018-01-21T09:23:07.223Z,5608
2018-01-21T09:24:17.135Z,4864
2018-01-21T09:25:27.306Z,4792
2018-01-21T09:26:37.455Z,5244
2018-01-21T09:27:47.644Z,6036
2018-01-21T09:28:57.844Z,5996
2018-01-21T09:30:08.144Z,5132
2018-01-21T09:31:18.305Z,4440
2018-01-21T09:32:28.531Z,4364
2018-01-21T09:33:38.757Z,4360
2018-01-21T09:34:48.930Z,4460
2018-01-21T09:35:59.204Z,4628
2018-01-21T09:37:09.390Z,4796
2018-01-21T09:38:19.539Z,4684
2018-01-21T09:39:29.830Z,4512
2018-01-21T09:40:40.041Z,4384
2018-01-21T09:41:50.233Z,3648
2018-01-21T09:43:00.365Z,3560
2018-01-21T09:44:10.236Z,4376
2018-01-21T09:45:20.662Z,5064
2018-01-21T09:46:30.841Z,5740
2018-01-21T09:47:41.094Z,6708
2018-01-21T09:48:51.387Z,7084
2018-01-21T09:50:01.566Z,7404
2018-01-21T09:51:11.749Z,8044
2018-01-21T09:52:21.926Z,7972
2018-01-21T09:53:33.035Z,6908
2018-01-21T09:54:44.246Z,5232
2018-01-21T09:55:54.417Z,4860
2018-01-21T09:57:04.637Z,4580
2018-01-21T09:58:14.649Z,4484
2018-01-21T09:59:24.895Z,4336
2018-01-21T10:00:34.781Z,4312
2018-01-21T10:01:44.744Z,4356
2018-01-21T10:02:54.939Z,4228
2018-01-21T10:04:05.109Z,4232
2018-01-21T10:05:15.314Z,4276
2018-01-21T10:06:25.487Z,4164
2018-01-21T10:07:35.807Z,3960
2018-01-21T10:08:45.992Z,3924
2018-01-21T10:09:56.293Z,4020
2018-01-21T10:11:06.444Z,4280
2018-01-21T10:12:16.597Z,4456
2018-01-21T10:13:26.860Z,4572
2018-01-21T10:14:37.035Z,4536
2018-01-21T10:15:47.177Z,4404
2018-01-21T10:16:57.083Z,4268
2018-01-21T10:18:07.305Z,4400
2018-01-21T10:19:17.513Z,5160
2018-01-21T10:20:27.751Z,5544
2018-01-21T10:21:37.961Z,5552
2018-01-21T10:22:48.208Z,4948
2018-01-21T10:23:59.370Z,4900
2018-01-21T10:25:09.542Z,5604
2018-01-21T10:26:19.724Z,5724
2018-01-21T10:27:30.010Z,5160
2018-01-21T10:28:40.218Z,5332
2018-01-21T10:29:50.483Z,4960
2018-01-21T10:31:00.653Z,4912
2018-01-21T10:32:10.867Z,5412
2018-01-21T10:33:21.250Z,5264
2018-01-21T10:34:31.938Z,4892
2018-01-21T10:35:42.108Z,5052
2018-01-21T10:36:52.300Z,5596
2018-01-21T10:38:02.448Z,5824
2018-01-21T10:39:12.602Z,5684
2018-01-21T10:40:22.953Z,5660
2018-01-21T10:41:33.203Z,5520
2018-01-21T10:42:43.346Z,5092
2018-01-21T10:43:53.255Z,5004
2018-01-21T10:45:03.425Z,5368
2018-01-21T10:46:13.582Z,5620
2018-01-21T10:47:23.881Z,5564
2018-01-21T10:48:34.080Z,5640
2018-01-21T10:49:44.249Z,5868
2018-01-21T10:50:54.400Z,5892
2018-01-21T10:52:04.568Z,5652
2018-01-21T10:53:15.787Z,5552
2018-01-21T10:54:26.034Z,5396
2018-01-21T10:55:36.307Z,5376
2018-01-21T10:56:46.613Z,5096
2018-01-21T10:57:56.780Z,4776
2018-01-21T10:59:06.990Z,4712
2018-01-21T11:00:17.174Z,4948
2018-01-21T11:01:27.481Z,5416
2018-01-21T11:02:37.781Z,5504
2018-01-21T11:03:47.938Z,6544
2018-01-21T11:04:59.087Z,7004
2018-01-21T11:06:09.409Z,7076
2018-01-21T11:07:19.534Z,6664
2018-01-21T11:08:29.730Z,6684
2018-01-21T11:09:39.961Z,7348
2018-01-21T11:10:50.217Z,6828
2018-01-21T11:12:00.456Z,9660
2018-01-21T11:13:10.700Z,10452
2018-01-21T11:14:20.882Z,8588
2018-01-21T11:15:31.099Z,7872
2018-01-21T11:16:41.331Z,6852
2018-01-21T11:17:51.580Z,6856
2018-01-21T11:19:01.754Z,7088
2018-01-21T11:20:12.982Z,7100
2018-01-21T11:21:23.215Z,7072
2018-01-21T11:22:33.358Z,7332
2018-01-21T11:23:43.586Z,8364
2018-01-21T11:24:53.773Z,9384
2018-01-21T11:26:04.015Z,7836
2018-01-21T11:27:14.387Z,6524
2018-01-21T11:28:24.646Z,6012
2018-01-21T11:29:34.974Z,5672
2018-01-21T11:30:45.194Z,6252
2018-01-21T11:31:55.588Z,7140
2018-01-21T11:33:05.855Z,7640
2018-01-21T11:34:16.090Z,7804
2018-01-21T11:35:26.267Z,7548
2018-01-21T11:36:36.567Z,7636
2018-01-21T11:37:47.737Z,8436
2018-01-21T11:38:57.961Z,8372
2018-01-21T11:40:08.168Z,8340
2018-01-21T11:41:19.350Z,8032
2018-01-21T11:42:29.557Z,7832
2018-01-21T11:43:39.855Z,9544
2018-01-21T11:44:50.057Z,9824
2018-01-21T11:46:00.278Z,8712
2018-01-21T11:47:13.371Z,7800
2018-01-21T11:48:23.587Z,7672
2018-01-21T11:49:33.833Z,7200
2018-01-21T11:50:44.058Z,6548
2018-01-21T11:51:54.327Z,5840
2018-01-21T11:53:04.609Z,5224
2018-01-21T11:54:14.765Z,4852
2018-01-21T11:55:24.986Z,4752
2018-01-21T11:56:35.285Z,4364
2018-01-21T11:57:45.477Z,4284
2018-01-21T11:58:55.641Z,4724
2018-01-21T12:00:05.865Z,5312
2018-01-21T12:01:15.821Z,5288
2018-01-21T12:02:26.030Z,4872
2018-01-21T12:03:35.933Z,4300
2018-01-21T12:04:46.205Z,4384
2018-01-21T12:05:56.613Z,4468
2018-01-21T12:07:06.782Z,4404
2018-01-21T12:08:16.972Z,4504
2018-01-21T12:09:27.174Z,4692
2018-01-21T12:10:37.435Z,4744
2018-01-21T12:11:47.451Z,4920
2018-01-21T12:12:57.746Z,4660
2018-01-21T12:14:08.052Z,4312
2018-01-21T12:15:18.249Z,4396
2018-01-21T12:16:28.577Z,4456
2018-01-21T12:17:38.850Z,4436
2018-01-21T12:18:49.004Z,4968
2018-01-21T12:19:59.216Z,5156
2018-01-21T12:21:09.447Z,5096
2018-01-21T12:22:19.447Z,5656
2018-01-21T12:23:29.884Z,6028
2018-01-21T12:24:40.080Z,6176
2018-01-21T12:25:50.350Z,6136
2018-01-21T12:27:00.605Z,5612
2018-01-21T12:28:10.833Z,5404
2018-01-21T12:29:22.017Z,5320
2018-01-21T12:30:32.217Z,5308
2018-01-21T12:31:42.416Z,6112
2018-01-21T12:32:52.705Z,6196
2018-01-21T12:34:02.882Z,6108
2018-01-21T12:35:13.280Z,5348
2018-01-21T12:36:23.509Z,5376
2018-01-21T12:37:33.693Z,7092
2018-01-21T12:38:43.884Z,7076
2018-01-21T12:39:54.084Z,6220
2018-01-21T12:41:04.278Z,5236
2018-01-21T12:42:14.521Z,4908
2018-01-21T12:43:24.696Z,5084
2018-01-21T12:44:34.955Z,4696
2018-01-21T12:45:45.425Z,4520
2018-01-21T12:46:56.332Z,4104
2018-01-21T12:48:06.571Z,4144
2018-01-21T12:49:16.769Z,4280
2018-01-21T12:50:26.985Z,4944
2018-01-21T12:51:37.185Z,5596
2018-01-21T12:52:47.397Z,5696
2018-01-21T12:53:57.596Z,5304
2018-01-21T12:55:07.827Z,4984
2018-01-21T12:56:18.038Z,4716
2018-01-21T12:57:28.305Z,4576
2018-01-21T12:58:38.478Z,3864
2018-01-21T12:59:48.656Z,3560
2018-01-21T13:00:58.914Z,3444
2018-01-21T13:02:09.175Z,3324
2018-01-21T13:03:19.371Z,3112
2018-01-21T13:04:29.702Z,2976
2018-01-21T13:05:39.952Z,2956
2018-01-21T13:06:50.347Z,2936
2018-01-21T13:08:00.604Z,2968
2018-01-21T13:09:10.800Z,3028
2018-01-21T13:10:21.074Z,2848
2018-01-21T13:11:31.286Z,2852
2018-01-21T13:12:41.534Z,2812
2018-01-21T13:13:51.785Z,2616
2018-01-21T13:15:02.015Z,2580
2018-01-21T13:16:11.973Z,2752
2018-01-21T13:17:22.290Z,2820
2018-01-21T13:18:32.607Z,2732
2018-01-21T13:19:42.900Z,2644
2018-01-21T13:20:53.192Z,2528
2018-01-21T13:22:03.476Z,2708
2018-01-21T13:23:13.698Z,3068
2018-01-21T13:24:23.956Z,3388
2018-01-21T13:25:34.163Z,3640
2018-01-21T13:26:44.383Z,3792
2018-01-21T13:27:54.575Z,3980
2018-01-21T13:29:04.788Z,4024
2018-01-21T13:30:14.956Z,4076
2018-01-21T13:31:25.174Z,4004
2018-01-21T13:32:35.457Z,3640
2018-01-21T13:33:45.711Z,3176
2018-01-21T13:34:55.912Z,2992
2018-01-21T13:36:06.165Z,2788
2018-01-21T13:37:16.358Z,2500
2018-01-21T13:38:26.591Z,2468
2018-01-21T13:39:36.801Z,2696
2018-01-21T13:40:47.014Z,3040
2018-01-21T13:41:57.216Z,3196
2018-01-21T13:43:07.414Z,2948
2018-01-21T13:44:17.750Z,2960
2018-01-21T13:45:27.931Z,2908
2018-01-21T13:47:10.163Z,2988
2018-01-21T13:48:20.394Z,2876
2018-01-21T13:49:30.708Z,2752
2018-01-21T13:50:40.878Z,2436
2018-01-21T13:51:51.095Z,2316
2018-01-21T13:53:02.691Z,2104
2018-01-21T13:54:12.978Z,1872
2018-01-21T13:55:22.902Z,1664
2018-01-21T13:56:33.125Z,1636
2018-01-21T13:57:43.294Z,1692
2018-01-21T13:58:53.443Z,1724
2018-01-21T14:00:03.700Z,1836
2018-01-21T14:01:13.911Z,1956
2018-01-21T14:02:24.139Z,1820
2018-01-21T14:03:34.251Z,1768
2018-01-21T14:04:44.533Z,1496
2018-01-21T14:05:54.828Z,1388
2018-01-21T14:07:05.058Z,1388
2018-01-21T14:08:15.331Z,1592
2018-01-21T14:09:25.537Z,1564
2018-01-21T14:10:35.903Z,1512
2018-01-21T14:11:46.185Z,1408
2018-01-21T14:12:56.453Z,1360
2018-01-21T14:14:06.704Z,1584
2018-01-21T14:15:17.106Z,1728
2018-01-21T14:16:27.410Z,1612
2018-01-21T14:17:37.764Z,1476
2018-01-21T14:18:48.084Z,1572
2018-01-21T14:19:58.378Z,1584
2018-01-21T14:21:08.596Z,1580
2018-01-21T14:22:18.816Z,1700
2018-01-21T14:23:29.650Z,1748
2018-01-21T14:24:40.201Z,1688
2018-01-21T14:25:50.410Z,1656
2018-01-21T14:27:00.678Z,1744
2018-01-21T14:28:10.950Z,1776
2018-01-21T14:29:21.225Z,1664
2018-01-21T14:30:31.451Z,1740
2018-01-21T14:31:41.684Z,1580
2018-01-21T14:32:51.903Z,1528
2018-01-21T14:34:02.459Z,1528
2018-01-21T14:35:12.723Z,1472
2018-01-21T14:36:22.943Z,1512
2018-01-21T14:37:33.142Z,1440
2018-01-21T14:38:43.351Z,1312
2018-01-21T14:39:54.691Z,1268
2018-01-21T14:41:04.859Z,1236
2018-01-21T14:42:15.122Z,1224
2018-01-21T14:43:25.335Z,1132
2018-01-21T14:44:35.561Z,1064
2018-01-21T14:45:45.765Z,1016
2018-01-21T14:46:55.982Z,876
2018-01-21T14:48:06.233Z,824
2018-01-21T14:49:16.189Z,808
2018-01-21T14:50:26.413Z,800
2018-01-21T14:51:36.473Z,776
2018-01-21T14:52:46.672Z,764
2018-01-21T14:53:56.851Z,824
2018-01-21T14:55:07.076Z,784
2018-01-21T14:56:17.278Z,704
2018-01-21T14:57:27.708Z,632
2018-01-21T14:58:38.118Z,612
2018-01-21T14:59:48.410Z,600
2018-01-21T15:00:58.718Z,556
2018-01-21T15:02:08.986Z,548
2018-01-21T15:03:19.493Z,576
2018-01-21T15:04:29.796Z,592
2018-01-21T15:05:40.123Z,564
2018-01-21T15:06:50.361Z,524
2018-01-21T15:08:00.843Z,488
2018-01-21T15:09:11.093Z,452
2018-01-21T15:10:21.342Z,408
2018-01-21T15:11:31.541Z,376
2018-01-21T15:12:41.878Z,372
2018-01-21T15:13:52.073Z,364
2018-01-21T15:15:02.394Z,348
2018-01-21T15:16:12.561Z,320
2018-01-21T15:17:22.752Z,300
2018-01-21T15:18:32.986Z,280
2018-01-21T15:19:43.229Z,256
2018-01-21T15:20:53.545Z,224
2018-01-21T15:22:03.813Z,192
2018-01-21T15:23:13.984Z,192
2018-01-21T15:24:24.199Z,196
2018-01-21T15:25:34.348Z,200
2018-01-21T15:26:44.614Z,192
2018-01-21T15:27:54.808Z,180
2018-01-21T15:29:05.055Z,180
2018-01-21T15:30:15.245Z,188
2018-01-21T15:31:25.464Z,180
2018-01-21T15:32:35.664Z,172
2018-01-21T15:33:45.897Z,156
2018-01-21T15:34:56.151Z,140
2018-01-21T15:36:06.421Z,120
2018-01-21T15:37:16.651Z,112
2018-01-21T15:38:26.889Z,100
2018-01-21T15:39:36.838Z,88
2018-01-21T15:40:47.108Z,76
2018-01-21T15:41:57.298Z,64
2018-01-21T15:43:07.508Z,60
2018-01-21T15:44:17.657Z,52
2018-01-21T15:45:27.916Z,44
2018-01-21T15:46:38.236Z,40
2018-01-21T15:47:48.465Z,36
2018-01-21T15:48:58.695Z,32
2018-01-21T15:50:08.938Z,28
2018-01-21T15:51:19.153Z,28
2018-01-21T15:52:29.370Z,24
2018-01-21T15:53:39.556Z,20
2018-01-21T15:54:49.623Z,16
2018-01-21T15:55:59.811Z,12
2018-01-21T15:57:09.830Z,8
2018-01-21T15:58:19.989Z,8
2018-01-21T15:59:30.242Z,8
2018-01-21T16:00:40.545Z,8
2018-01-21T16:01:50.836Z,4
2018-01-21T16:03:00.984Z,4
2018-01-21T16:04:11.164Z,4
2018-01-21T16:05:21.356Z,0
2018-01-21T16:06:32.575Z,4
2018-01-21T16:07:42.808Z,4
2018-01-21T16:08:53.002Z,4
2018-01-21T16:10:03.286Z,0
2018-01-21T16:11:13.403Z,0
2018-01-21T16:12:23.716Z,4
2018-01-21T16:13:33.942Z,4
2018-01-21T16:14:44.158Z,4
2018-01-21T16:15:54.380Z,4
2018-01-21T16:17:04.660Z,4
2018-01-21T16:18:14.819Z,4
2018-01-21T16:19:25.052Z,4
2018-01-21T16:20:35.255Z,0
2018-01-21T16:21:45.480Z,0
2018-01-21T16:22:55.716Z,0
2018-01-21T16:24:05.918Z,0